Time;durP1;ratioP1;P1;durP2;ratioP2;P2;SDS_P1;SDS_P2;PMS_P1;PMS_P2;Temp;Humidity;BMP_temperature;BMP_pressure;BME280_temperature;BME280_humidity;BME280_pressure;Samples;Min_cycle;Max_cycle;Signal;HPM_P1;HPM_P2
2023/05/19 00:00:17;;;;;;;5.23;2.13;;;;;;;19.42;64.96;100813.09;5006795;28;21248;-62
2023/05/19 00:02:43;;;;;;;8.50;2.80;;;;;;;19.40;65.03;100808.94;4996264;28;20452;-63
2023/05/19 00:05:10;;;;;;;8.03;1.87;;;;;;;19.39;64.85;100808.13;4995091;28;20435;-63
2023/05/19 00:07:37;;;;;;;6.30;2.53;;;;;;;19.37;64.97;100804.78;5028450;28;20475;-62
2023/05/19 00:10:02;;;;;;;4.37;2.00;;;;;;;19.36;64.86;100811.72;5030861;28;20844;-63
2023/05/19 00:12:28;;;;;;;24.27;2.50;;;;;;;19.36;64.96;100808.88;4997813;28;20530;-63
2023/05/19 00:14:54;;;;;;;5.27;2.47;;;;;;;19.35;64.90;100804.34;5013926;28;20196;-63
2023/05/19 00:17:20;;;;;;;4.80;2.30;;;;;;;19.33;64.92;100805.94;5009547;28;20242;-63
2023/05/19 00:19:45;;;;;;;5.27;2.20;;;;;;;19.33;64.86;100803.06;5007874;28;20176;-62
2023/05/19 00:22:11;;;;;;;8.23;2.37;;;;;;;19.32;65.02;100804.28;5014759;28;20188;-62
2023/05/19 00:24:36;;;;;;;4.63;2.20;;;;;;;19.30;65.20;100807.50;4995509;28;20201;-63
2023/05/19 00:27:02;;;;;;;6.97;2.37;;;;;;;19.29;65.10;100803.00;4992311;28;20184;-63
2023/05/19 00:29:28;;;;;;;6.80;2.20;;;;;;;19.30;64.99;100804.63;4998146;28;20664;-62
2023/05/19 00:31:53;;;;;;;5.63;2.00;;;;;;;19.26;65.15;100812.31;5009201;28;20169;-62
2023/05/19 00:34:19;;;;;;;5.70;2.10;;;;;;;19.25;65.04;100809.81;5008772;28;20245;-63
2023/05/19 00:36:44;;;;;;;5.50;1.80;;;;;;;19.25;64.81;100793.47;5025156;28;20207;-62
2023/05/19 00:39:10;;;;;;;4.93;1.83;;;;;;;19.24;64.94;100797.56;5028012;28;20180;-62
2023/05/19 00:41:35;;;;;;;4.23;1.97;;;;;;;19.23;64.98;100801.63;5018456;28;20200;-62
2023/05/19 00:44:00;;;;;;;6.03;2.30;;;;;;;19.20;64.98;100802.34;5015671;28;20192;-62
2023/05/19 00:46:26;;;;;;;7.50;2.27;;;;;;;19.21;65.00;100806.03;5007998;28;20177;-63
2023/05/19 00:48:51;;;;;;;5.57;2.10;;;;;;;19.20;64.80;100804.34;5008374;28;20191;-62
2023/05/19 00:51:17;;;;;;;6.00;2.27;;;;;;;19.18;65.02;100810.47;5007612;28;20172;-63
2023/05/19 00:53:47;;;;;;;14.10;2.53;;;;;;;19.18;65.03;100804.75;5007221;28;20231;-63
2023/05/19 00:56:12;;;;;;;7.43;1.80;;;;;;;19.17;65.32;100805.13;5020658;28;20603;-63
2023/05/19 00:58:38;;;;;;;5.40;2.20;;;;;;;19.17;65.16;100807.97;5025603;28;20415;-63
2023/05/19 01:01:03;;;;;;;5.30;1.97;;;;;;;19.16;64.86;100800.59;5020315;28;20196;-63
2023/05/19 01:03:36;;;;;;;6.57;2.30;;;;;;;19.15;65.13;100791.16;5006203;28;20261;-63
2023/05/19 01:06:05;;;;;;;6.30;1.80;;;;;;;19.13;65.02;100790.72;5006635;28;20229;-63
2023/05/19 01:08:35;;;;;;;4.80;1.90;;;;;;;19.12;65.01;100791.91;5013459;28;20985;-63
2023/05/19 01:11:01;;;;;;;4.40;2.30;;;;;;;19.13;64.91;100792.75;5012864;28;20791;-63
2023/05/19 01:13:27;;;;;;;5.47;2.10;;;;;;;19.11;64.94;100790.25;5011566;28;20435;-63
2023/05/19 01:15:52;;;;;;;5.10;2.43;;;;;;;19.12;65.09;100786.19;5025857;28;20250;-63
2023/05/19 01:18:20;;;;;;;5.67;1.90;;;;;;;19.11;64.96;100786.59;5025908;28;20184;-62
2023/05/19 01:20:51;;;;;;;6.00;2.40;;;;;;;19.10;64.71;100782.88;5009992;28;20185;-62
2023/05/19 01:23:22;;;;;;;2.90;1.70;;;;;;;19.09;64.86;100781.22;5006738;28;20452;-62
2023/05/19 01:26:06;;;;;;;3.80;1.80;;;;;;;19.09;64.57;100783.25;5010750;28;20794;-63
2023/05/19 01:28:46;;;;;;;5.00;2.10;;;;;;;19.08;64.43;100785.28;5007573;28;20404;-62
2023/05/19 01:31:11;;;;;;;10.90;2.27;;;;;;;19.08;65.00;100791.03;5024576;28;20423;-63
2023/05/19 01:33:37;;;;;;;10.23;2.00;;;;;;;19.07;64.96;100783.59;5007715;28;20415;-62
2023/05/19 01:36:03;;;;;;;3.40;1.40;;;;;;;19.07;64.90;100788.53;5005232;28;20200;-62
2023/05/19 01:38:28;;;;;;;7.73;2.00;;;;;;;19.04;64.91;100790.09;5026823;28;20173;-63
2023/05/19 01:40:54;;;;;;;4.47;2.27;;;;;;;19.05;64.77;100788.03;5015183;28;20661;-62
2023/05/19 01:43:24;;;;;;;8.80;1.97;;;;;;;19.04;64.90;100787.22;5025338;28;20671;-63
2023/05/19 01:45:49;;;;;;;3.03;1.63;;;;;;;19.02;64.95;100786.75;5025925;28;20164;-62
2023/05/19 01:48:15;;;;;;;3.27;1.80;;;;;;;19.01;65.00;100776.53;5027583;28;20442;-62
2023/05/19 01:50:40;;;;;;;4.17;1.33;;;;;;;19.02;64.91;100783.91;5023791;28;20184;-62
2023/05/19 01:53:06;;;;;;;3.20;1.73;;;;;;;19.01;65.10;100773.66;5026003;28;20169;-63
2023/05/19 01:55:31;;;;;;;3.60;1.23;;;;;;;19.00;65.01;100780.59;5016811;28;20202;-63
2023/05/19 01:58:10;;;;;;;4.27;1.97;;;;;;;19.00;64.97;100783.44;5006665;28;20181;-62
2023/05/19 02:00:48;;;;;;;2.83;1.50;;;;;;;19.00;64.78;100789.19;5009063;28;20208;-63
2023/05/19 02:03:37;;;;;;;5.47;2.37;;;;;;;18.98;65.27;100791.59;5007457;28;20911;-62
2023/05/19 02:06:36;;;;;;;3.43;1.60;;;;;;;18.98;64.97;100802.19;5013538;28;20466;-62
2023/05/19 02:09:08;;;;;;;4.13;1.73;;;;;;;18.97;65.00;100794.81;5026957;28;20430;-62
2023/05/19 02:11:51;;;;;;;4.17;1.80;;;;;;;18.97;64.99;100800.53;5010817;28;21045;-62
2023/05/19 02:14:19;;;;;;;4.13;1.67;;;;;;;18.97;65.03;100795.63;5009600;28;20942;-63
2023/05/19 02:16:47;;;;;;;7.43;1.87;;;;;;;18.95;65.10;100795.19;5030423;28;20533;-63
2023/05/19 02:19:23;;;;;;;4.07;2.00;;;;;;;18.94;65.13;100793.53;5024474;28;20543;-62
2023/05/19 02:21:48;;;;;;;5.57;1.87;;;;;;;18.93;65.10;100791.03;5010942;28;20408;-62
2023/05/19 02:24:15;;;;;;;3.10;1.73;;;;;;;18.94;65.14;100789.81;5010660;28;20416;-63
2023/05/19 02:26:41;;;;;;;3.40;2.10;;;;;;;18.93;65.23;100800.47;5010641;28;20172;-62
2023/05/19 02:29:06;;;;;;;7.20;2.03;;;;;;;18.92;65.04;100793.06;5013557;28;20797;-63
2023/05/19 02:31:31;;;;;;;5.57;1.73;;;;;;;18.92;65.14;100790.19;5009239;28;20176;-62
2023/05/19 02:33:57;;;;;;;3.50;1.70;;;;;;;18.91;64.92;100785.69;5013081;28;21036;-62
2023/05/19 02:36:22;;;;;;;4.17;1.60;;;;;;;18.91;64.99;100785.69;5019539;28;20565;-62
2023/05/19 02:38:48;;;;;;;3.30;1.60;;;;;;;18.90;64.97;100784.03;5028429;28;20822;-63
2023/05/19 02:41:13;;;;;;;4.23;1.70;;;;;;;18.91;65.09;100787.72;5025840;28;20238;-62
2023/05/19 02:43:38;;;;;;;4.80;2.10;;;;;;;18.90;65.08;100789.75;5028815;28;20184;-63
2023/05/19 02:46:04;;;;;;;3.70;1.70;;;;;;;18.88;64.84;100780.72;5025518;28;20184;-62
2023/05/19 02:48:29;;;;;;;4.60;1.70;;;;;;;18.90;64.78;100788.91;5029219;28;20273;-62
2023/05/19 02:50:55;;;;;;;2.83;1.50;;;;;;;18.86;65.00;100777.38;5029119;28;20183;-62
2023/05/19 02:53:20;;;;;;;4.90;1.83;;;;;;;18.88;64.91;100774.16;5012911;28;20199;-63
2023/05/19 02:55:46;;;;;;;5.03;1.77;;;;;;;18.86;64.91;100777.38;5008396;28;20201;-62
2023/05/19 02:58:11;;;;;;;5.30;1.73;;;;;;;18.86;64.81;100771.66;5010725;28;20185;-62
2023/05/19 03:00:37;;;;;;;3.10;1.80;;;;;;;18.86;64.79;100777.38;5010516;28;20169;-63
2023/05/19 03:03:03;;;;;;;7.53;2.10;;;;;;;18.87;64.94;100773.31;5009204;28;20989;-62
2023/05/19 03:05:31;;;;;;;2.80;1.70;;;;;;;18.86;64.91;100773.72;5025213;28;20275;-62
2023/05/19 03:07:57;;;;;;;3.10;1.50;;;;;;;18.85;64.93;100772.88;5029612;28;20517;-62
2023/05/19 03:10:22;;;;;;;5.47;2.30;;;;;;;18.84;65.11;100767.50;5021498;28;21011;-62
2023/05/19 03:12:48;;;;;;;4.40;1.63;;;;;;;18.84;64.66;100782.66;5010225;28;20223;-62
2023/05/19 03:15:15;;;;;;;5.60;2.03;;;;;;;18.83;64.98;100775.28;5033295;28;20458;-62
2023/05/19 03:17:40;;;;;;;3.83;2.30;;;;;;;18.83;64.94;100766.69;5027046;28;20254;-62
2023/05/19 03:20:06;;;;;;;4.83;2.40;;;;;;;18.84;64.92;100779.78;5029521;28;20415;-62
2023/05/19 03:22:32;;;;;;;4.80;1.50;;;;;;;18.82;64.95;100770.75;5020561;28;20208;-62
2023/05/19 03:24:57;;;;;;;3.57;1.73;;;;;;;18.81;64.91;100769.09;5010585;28;20409;-62
2023/05/19 03:27:23;;;;;;;3.07;1.53;;;;;;;18.82;64.74;100776.47;5009977;28;20247;-62
2023/05/19 03:29:48;;;;;;;4.10;1.90;;;;;;;18.82;64.74;100776.47;5011790;28;20196;-62
2023/05/19 03:32:14;;;;;;;4.00;1.60;;;;;;;18.82;64.81;100778.50;5009485;28;20204;-62
2023/05/19 03:34:40;;;;;;;4.20;2.17;;;;;;;18.81;64.78;100777.66;5008467;28;20509;-62
2023/05/19 03:37:05;;;;;;;3.43;1.97;;;;;;;18.82;64.86;100784.22;5013147;28;20203;-62
2023/05/19 03:39:30;;;;;;;3.07;1.40;;;;;;;18.80;64.41;100778.88;5026928;28;20183;-62
2023/05/19 03:41:56;;;;;;;4.20;1.63;;;;;;;18.80;64.82;100789.47;5028050;28;20249;-62
2023/05/19 03:44:21;;;;;;;3.70;1.63;;;;;;;18.79;64.75;100788.66;5030714;28;20226;-62
2023/05/19 03:46:47;;;;;;;4.97;1.67;;;;;;;18.80;64.88;100795.19;5040146;28;20168;-63
2023/05/19 03:49:13;;;;;;;4.90;1.70;;;;;;;18.77;64.94;100791.03;5029454;28;20195;-62
2023/05/19 03:51:39;;;;;;;4.40;1.40;;;;;;;18.78;64.91;100798.44;5026559;28;20259;-62
2023/05/19 03:54:05;;;;;;;3.43;1.57;;;;;;;18.78;64.95;100804.19;5008790;28;20432;-62
2023/05/19 03:56:31;;;;;;;2.90;1.33;;;;;;;18.78;64.75;100798.44;5004712;28;20455;-62
2023/05/19 03:58:56;;;;;;;3.30;1.77;;;;;;;18.77;64.61;100796.75;5015289;28;20191;-63
2023/05/19 04:01:22;;;;;;;4.87;2.50;;;;;;;18.78;64.67;100804.19;5028925;28;20473;-63
2023/05/19 04:03:47;;;;;;;2.50;1.40;;;;;;;18.78;64.71;100800.47;5024486;28;20234;-62
2023/05/19 04:06:13;;;;;;;2.97;1.43;;;;;;;18.76;64.86;100794.31;5008452;28;20221;-63
2023/05/19 04:08:38;;;;;;;2.60;1.43;;;;;;;18.76;64.67;100797.97;5009000;28;20641;-63
2023/05/19 04:11:04;;;;;;;3.63;1.70;;;;;;;18.76;64.76;100800.84;5013203;28;20723;-62
2023/05/19 04:13:31;;;;;;;2.97;1.30;;;;;;;18.76;64.70;100800.03;5029311;28;20173;-62
2023/05/19 04:15:57;;;;;;;4.13;1.50;;;;;;;18.76;64.57;100800.84;5033506;28;20200;-62
2023/05/19 04:18:22;;;;;;;3.00;1.37;;;;;;;18.75;64.68;100799.19;5027946;28;20933;-63
2023/05/19 04:20:48;;;;;;;3.80;1.93;;;;;;;18.74;64.77;100791.81;5011488;28;20264;-63
2023/05/19 04:23:13;;;;;;;3.37;1.50;;;;;;;18.74;64.87;100794.66;5007708;28;20187;-63
2023/05/19 04:25:39;;;;;;;2.80;1.40;;;;;;;18.73;64.93;100798.72;5009402;28;20288;-62
2023/05/19 04:28:05;;;;;;;3.37;1.90;;;;;;;18.74;64.64;100802.41;5007873;28;20212;-63
2023/05/19 04:30:30;;;;;;;2.83;1.50;;;;;;;18.73;64.72;100801.59;5018979;28;20423;-62
2023/05/19 04:32:56;;;;;;;4.03;1.93;;;;;;;18.72;64.73;100802.78;5027328;28;20161;-62
2023/05/19 04:35:22;;;;;;;3.47;1.50;;;;;;;18.72;64.69;100808.50;5011885;28;20248;-62
2023/05/19 04:37:48;;;;;;;4.23;1.50;;;;;;;18.73;64.49;100804.44;5008473;28;20813;-62
2023/05/19 04:40:13;;;;;;;3.40;1.60;;;;;;;18.72;64.68;100799.91;5014648;28;20191;-63
2023/05/19 04:42:40;;;;;;;3.27;1.40;;;;;;;18.72;64.90;100802.78;5042917;28;20183;-63
2023/05/19 04:45:07;;;;;;;3.30;1.73;;;;;;;18.72;64.94;100804.81;5039930;28;20787;-63
2023/05/19 04:47:36;;;;;;;3.87;1.60;;;;;;;18.72;64.84;100802.78;5048607;28;20811;-62
2023/05/19 04:50:03;;;;;;;3.40;1.80;;;;;;;18.72;64.88;100804.81;5048494;28;20422;-62
2023/05/19 04:52:28;;;;;;;3.17;1.40;;;;;;;18.72;64.70;100805.63;5028970;28;20447;-63
2023/05/19 04:54:53;;;;;;;4.00;1.70;;;;;;;18.70;64.75;100810.91;5007786;28;20424;-63
2023/05/19 04:57:19;;;;;;;2.40;1.33;;;;;;;18.71;64.62;100809.69;5008560;28;20185;-62
2023/05/19 04:59:45;;;;;;;3.50;1.57;;;;;;;18.70;64.56;100812.91;5008386;28;20644;-62
2023/05/19 05:02:10;;;;;;;3.50;1.60;;;;;;;18.70;64.61;100815.78;5010894;28;20660;-63
2023/05/19 05:04:36;;;;;;;3.33;1.20;;;;;;;18.69;64.54;100806.38;5026869;28;20172;-63
2023/05/19 05:07:01;;;;;;;2.67;1.63;;;;;;;18.68;65.00;100807.59;5014764;28;20736;-62
2023/05/19 05:09:27;;;;;;;3.73;1.70;;;;;;;18.69;64.66;100811.25;5002304;28;20300;-62
2023/05/19 05:11:53;;;;;;;2.87;1.47;;;;;;;18.69;64.73;100817.81;5008240;28;20177;-62
2023/05/19 05:14:18;;;;;;;3.23;1.33;;;;;;;18.69;64.84;100819.84;5007982;28;20264;-63
2023/05/19 05:16:45;;;;;;;3.10;1.57;;;;;;;18.68;64.68;100816.16;5027385;28;20255;-62
2023/05/19 05:19:10;;;;;;;3.03;2.00;;;;;;;18.69;64.50;100820.69;4988808;28;20186;-62
2023/05/19 05:21:36;;;;;;;2.27;1.17;;;;;;;18.68;64.69;100816.16;4988722;28;20448;-63
2023/05/19 05:24:02;;;;;;;3.00;1.30;;;;;;;18.68;64.73;100810.44;4988526;28;20188;-62
2023/05/19 05:26:29;;;;;;;2.87;1.50;;;;;;;18.68;64.87;100819.03;5003594;28;20235;-62
2023/05/19 05:28:55;;;;;;;2.47;1.20;;;;;;;18.69;64.47;100814.13;4989991;28;20166;-63
2023/05/19 05:31:20;;;;;;;3.53;1.67;;;;;;;18.66;64.64;100809.97;5000403;28;20790;-62
2023/05/19 05:33:45;;;;;;;3.07;1.53;;;;;;;18.66;64.61;100815.69;4988385;28;20661;-62
2023/05/19 05:36:12;;;;;;;2.03;1.30;;;;;;;18.66;64.87;100812.84;4987252;28;20525;-62
2023/05/19 05:38:37;;;;;;;2.77;1.40;;;;;;;18.67;64.79;100813.69;4990086;28;20264;-62
2023/05/19 05:41:03;;;;;;;2.97;1.53;;;;;;;18.66;64.71;100809.97;4988537;28;20409;-62
2023/05/19 05:43:29;;;;;;;3.00;1.47;;;;;;;18.65;64.59;100807.47;4995730;28;21719;-62
2023/05/19 05:45:55;;;;;;;2.30;1.30;;;;;;;18.65;64.54;100814.03;5005304;28;20176;-62
2023/05/19 05:48:21;;;;;;;3.63;1.47;;;;;;;18.66;64.52;100804.25;5007780;28;20173;-62
2023/05/19 05:50:47;;;;;;;3.30;1.70;;;;;;;18.66;64.65;100812.03;4994245;28;20955;-63
2023/05/19 05:53:18;;;;;;;2.37;1.50;;;;;;;18.67;64.39;100814.50;4984076;28;20173;-62
2023/05/19 05:55:47;;;;;;;2.47;1.50;;;;;;;18.67;64.67;100813.69;4996628;28;20205;-62
2023/05/19 05:58:13;;;;;;;3.03;1.77;;;;;;;18.65;64.78;100814.03;5016801;28;20434;-62
2023/05/19 06:00:42;;;;;;;3.63;1.57;;;;;;;18.66;64.49;100818.56;5014220;28;20425;-62
2023/05/19 06:03:08;;;;;;;2.90;1.40;;;;;;;18.68;64.37;100815.34;5031233;28;20899;-63
2023/05/19 06:05:34;;;;;;;3.67;1.80;;;;;;;18.67;64.58;100810.81;4997326;28;20433;-63
2023/05/19 06:08:00;;;;;;;2.53;1.33;;;;;;;18.64;64.64;100809.53;5011242;28;20501;-63
2023/05/19 06:10:25;;;;;;;2.83;1.27;;;;;;;18.66;64.45;100806.31;5013239;28;20439;-63
2023/05/19 06:12:50;;;;;;;3.90;1.30;;;;;;;18.66;64.33;100803.44;5021135;28;20177;-63
2023/05/19 06:15:16;;;;;;;3.83;1.73;;;;;;;18.67;64.62;100807.97;5029661;28;20214;-63
2023/05/19 06:17:41;;;;;;;2.73;1.40;;;;;;;18.66;64.56;100806.31;5002900;28;20265;-63
2023/05/19 06:20:08;;;;;;;2.80;1.40;;;;;;;18.63;64.71;100807.88;5023166;28;20352;-63
2023/05/19 06:22:34;;;;;;;3.53;1.33;;;;;;;18.65;64.42;100805.47;5018613;28;20201;-63
2023/05/19 06:25:00;;;;;;;4.53;1.43;;;;;;;18.64;64.54;100795.22;5017766;28;20490;-63
2023/05/19 06:27:25;;;;;;;2.33;1.43;;;;;;;18.64;64.75;100814.41;5019945;28;20217;-63
2023/05/19 06:29:51;;;;;;;4.00;1.47;;;;;;;18.65;64.59;100810.34;5016300;28;20192;-63
2023/05/19 06:32:16;;;;;;;2.60;1.40;;;;;;;18.63;64.61;100813.59;5030377;28;20244;-64
2023/05/19 06:34:42;;;;;;;2.33;1.37;;;;;;;18.62;64.70;100814.75;5035824;28;20188;-64
2023/05/19 06:37:07;;;;;;;3.10;1.20;;;;;;;18.64;64.63;100820.13;5013564;28;20205;-63
2023/05/19 06:39:33;;;;;;;3.20;1.50;;;;;;;18.64;64.45;100820.13;5029561;28;21152;-63
2023/05/19 06:41:58;;;;;;;3.70;1.60;;;;;;;18.63;64.63;100807.88;5033815;28;20200;-63
2023/05/19 06:44:24;;;;;;;2.90;1.30;;;;;;;18.64;64.55;100812.38;5029562;28;20172;-63
2023/05/19 06:46:49;;;;;;;3.70;1.37;;;;;;;18.64;64.42;100812.38;5029037;28;20188;-63
2023/05/19 06:49:15;;;;;;;2.40;1.20;;;;;;;18.64;64.41;100808.69;5028562;28;20193;-63
2023/05/19 06:51:40;;;;;;;2.20;1.20;;;;;;;18.64;64.81;100811.53;5029893;28;20181;-64
2023/05/19 06:54:06;;;;;;;2.70;1.50;;;;;;;18.63;64.55;100810.72;5030543;28;20165;-64
2023/05/19 06:56:31;;;;;;;2.30;1.23;;;;;;;18.62;64.57;100809.03;5024439;28;20258;-64
2023/05/19 06:58:56;;;;;;;2.87;1.17;;;;;;;18.62;64.65;100806.19;5029611;28;20648;-64
2023/05/19 07:01:22;;;;;;;2.30;1.20;;;;;;;18.62;64.50;100805.38;5026587;28;20188;-64
2023/05/19 07:03:47;;;;;;;4.17;1.80;;;;;;;18.63;64.63;100802.16;5026649;28;20633;-64
2023/05/19 07:06:13;;;;;;;2.10;1.20;;;;;;;18.62;64.40;100800.47;5026180;28;20714;-64
2023/05/19 07:08:38;;;;;;;2.37;1.30;;;;;;;18.63;64.63;100802.16;5025438;28;20216;-64
2023/05/19 07:11:04;;;;;;;2.50;1.40;;;;;;;18.62;64.53;100794.75;5031002;28;20724;-64
2023/05/19 07:13:29;;;;;;;4.33;1.40;;;;;;;18.62;64.55;100797.59;5018671;28;20656;-64
2023/05/19 07:15:55;;;;;;;2.10;1.40;;;;;;;18.62;64.51;100791.88;5029948;28;21030;-64
2023/05/19 07:18:21;;;;;;;2.77;1.20;;;;;;;18.61;64.73;100792.28;5025423;28;20172;-64
2023/05/19 07:20:46;;;;;;;2.20;1.10;;;;;;;18.61;64.51;100793.09;5026518;28;20763;-64
2023/05/19 07:23:12;;;;;;;3.03;1.20;;;;;;;18.62;64.71;100791.06;5023702;28;20177;-64
2023/05/19 07:25:37;;;;;;;2.20;1.23;;;;;;;18.63;64.47;100795.59;5033202;28;20168;-64
2023/05/19 07:28:03;;;;;;;2.17;1.23;;;;;;;18.63;64.56;100785.00;5028410;28;20172;-64
2023/05/19 07:30:28;;;;;;;2.50;1.53;;;;;;;18.62;64.44;100780.44;5022846;28;20677;-64
2023/05/19 07:32:54;;;;;;;2.20;1.40;;;;;;;18.62;64.32;100785.34;5017957;28;20181;-64
2023/05/19 07:35:21;;;;;;;2.70;1.47;;;;;;;18.63;64.57;100778.44;5020805;28;20165;-64
2023/05/19 07:37:47;;;;;;;2.07;1.30;;;;;;;18.63;64.52;100781.28;5026796;28;20217;-64
2023/05/19 07:40:13;;;;;;;2.87;1.30;;;;;;;18.62;64.42;100788.22;5027759;28;20427;-64
2023/05/19 07:42:39;;;;;;;2.53;1.10;;;;;;;18.61;64.36;100773.06;5026573;28;20789;-64
2023/05/19 07:45:05;;;;;;;2.03;1.20;;;;;;;18.62;64.54;100776.78;5045815;28;20183;-63
2023/05/19 07:47:30;;;;;;;2.20;1.30;;;;;;;18.61;64.56;100769.41;5034768;28;20427;-64
2023/05/19 07:49:56;;;;;;;2.40;1.30;;;;;;;18.62;64.50;100771.06;5020038;28;20890;-63
2023/05/19 07:52:21;;;;;;;4.70;1.50;;;;;;;18.62;64.25;100769.00;5021058;28;20617;-64
2023/05/19 07:54:46;;;;;;;2.70;1.40;;;;;;;18.63;64.57;100775.56;5024818;28;20188;-63
2023/05/19 07:57:13;;;;;;;3.63;1.67;;;;;;;18.62;64.30;100771.06;5015521;28;20661;-63
2023/05/19 07:59:38;;;;;;;2.60;1.17;;;;;;;18.62;64.17;100768.19;5011458;28;20187;-64
2023/05/19 08:02:04;;;;;;;2.87;1.40;;;;;;;18.62;64.24;100771.06;5012352;28;20428;-65
2023/05/19 08:04:30;;;;;;;2.70;1.53;;;;;;;18.57;63.16;100759.91;5022460;28;20184;-64
2023/05/19 08:06:55;;;;;;;4.60;2.00;;;;;;;18.50;60.73;100756.84;5017949;28;20236;-64
2023/05/19 08:09:21;;;;;;;9.93;2.53;;;;;;;18.45;59.68;100757.97;5028782;28;20262;-64
2023/05/19 08:11:46;;;;;;;7.53;2.57;;;;;;;18.42;58.70;100760.75;5025796;28;20199;-63
2023/05/19 08:14:12;;;;;;;10.27;3.00;;;;;;;18.46;57.83;100759.63;5019289;28;20206;-64
2023/05/19 08:16:37;;;;;;;11.00;3.83;;;;;;;18.42;57.16;100761.56;5028412;28;20267;-64
2023/05/19 08:19:04;;;;;;;11.13;2.87;;;;;;;18.54;57.30;100758.59;5015882;28;20588;-64
2023/05/19 08:21:33;;;;;;;10.27;3.53;;;;;;;18.71;59.74;100755.34;5021629;28;20172;-64
2023/05/19 08:23:59;;;;;;;13.57;3.80;;;;;;;18.76;59.70;100759.97;5018647;28;20549;-65
2023/05/19 08:26:25;;;;;;;9.27;3.87;;;;;;;18.77;59.83;100753.06;5017145;28;21349;-64
2023/05/19 08:28:50;;;;;;;9.60;2.97;;;;;;;18.83;60.00;100752.41;4994953;28;20440;-64
2023/05/19 08:31:17;;;;;;;9.93;3.80;;;;;;;18.85;60.45;100747.13;5011982;28;20192;-64
2023/05/19 08:33:42;;;;;;;7.37;3.23;;;;;;;18.86;60.56;100742.25;5021403;28;20259;-63
2023/05/19 08:36:08;;;;;;;11.70;3.33;;;;;;;18.86;60.37;100745.91;5005199;28;20464;-65
2023/05/19 08:38:33;;;;;;;8.23;3.23;;;;;;;18.86;60.28;100743.06;5014245;28;20169;-63
2023/05/19 08:40:59;;;;;;;9.60;3.20;;;;;;;18.91;59.36;100750.53;5015187;28;20185;-63
2023/05/19 08:43:24;;;;;;;7.80;2.80;;;;;;;19.12;59.35;100737.53;5024569;28;20199;-65
2023/05/19 08:45:52;;;;;;;8.80;2.90;;;;;;;18.97;59.86;100734.72;5014519;28;20188;-63
2023/05/19 08:48:18;;;;;;;9.40;3.30;;;;;;;18.94;59.79;100733.44;5022012;28;20605;-64
2023/05/19 08:50:48;;;;;;;7.20;3.03;;;;;;;18.94;59.59;100733.44;5019041;28;20443;-64
2023/05/19 08:53:21;;;;;;;6.60;3.40;;;;;;;18.88;59.62;100731.25;5015683;28;20180;-64
2023/05/19 08:55:53;;;;;;;10.77;3.17;;;;;;;18.77;59.27;100733.03;5009010;28;20462;-64
2023/05/19 08:58:20;;;;;;;6.50;2.90;;;;;;;18.71;58.52;100729.63;5010475;28;20432;-65
2023/05/19 09:00:46;;;;;;;7.27;3.57;;;;;;;18.67;57.76;100725.84;5005934;28;20439;-64
2023/05/19 09:03:14;;;;;;;8.37;3.30;;;;;;;18.71;56.45;100731.66;5032117;28;20395;-64
2023/05/19 09:05:40;;;;;;;9.40;3.53;;;;;;;18.81;56.41;100723.31;5023908;28;20447;-64
2023/05/19 09:08:05;;;;;;;11.10;3.80;;;;;;;18.85;57.27;100724.22;5021995;28;20452;-63
2023/05/19 09:10:31;;;;;;;11.00;3.00;;;;;;;18.98;57.16;100727.81;5026848;28;20187;-63
2023/05/19 09:12:56;;;;;;;16.33;4.00;;;;;;;18.98;57.70;100728.66;5021136;28;20192;-65
2023/05/19 09:15:22;;;;;;;9.10;2.73;;;;;;;18.98;57.06;100722.91;5023853;28;20188;-64
2023/05/19 09:17:47;;;;;;;6.40;2.73;;;;;;;19.01;57.62;100722.16;5004422;28;20664;-64
2023/05/19 09:20:14;;;;;;;14.67;3.20;;;;;;;18.99;57.29;100716.00;5011901;28;20234;-64
2023/05/19 09:22:46;;;;;;;11.00;2.90;;;;;;;18.95;57.94;100723.66;5031080;28;20248;-65
2023/05/19 09:25:21;;;;;;;7.77;3.27;;;;;;;18.97;57.31;100718.38;5031546;28;20546;-63
2023/05/19 09:27:48;;;;;;;8.93;3.17;;;;;;;18.97;57.75;100711.84;5021599;28;20446;-63
2023/05/19 09:30:15;;;;;;;7.90;3.13;;;;;;;18.92;57.22;100715.81;5031727;28;20439;-63
2023/05/19 09:32:40;;;;;;;7.67;2.57;;;;;;;18.97;56.64;100709.78;5032127;28;20454;-63
2023/05/19 09:35:06;;;;;;;6.13;2.53;;;;;;;18.93;56.31;100708.06;5026897;28;20447;-64
2023/05/19 09:37:32;;;;;;;8.57;2.80;;;;;;;18.83;56.58;100709.50;5018861;28;20557;-64
2023/05/19 09:39:57;;;;;;;7.47;2.60;;;;;;;18.79;56.18;100714.28;5014156;28;20431;-65
2023/05/19 09:42:25;;;;;;;6.80;2.80;;;;;;;18.80;55.85;100710.22;5029087;28;20698;-64
2023/05/19 09:44:57;;;;;;;6.63;2.63;;;;;;;18.84;55.65;100705.41;5042093;28;20185;-65
2023/05/19 09:47:23;;;;;;;8.97;2.60;;;;;;;18.82;55.90;100702.09;5032228;28;20433;-64
2023/05/19 09:49:50;;;;;;;7.77;3.13;;;;;;;18.85;55.98;100698.50;5025970;28;20939;-64
2023/05/19 09:52:17;;;;;;;6.57;2.50;;;;;;;18.93;55.78;100705.19;5026767;28;20603;-64
2023/05/19 09:54:43;;;;;;;5.73;2.37;;;;;;;18.92;55.89;100704.38;5017088;28;20399;-64
2023/05/19 09:57:09;;;;;;;6.53;2.60;;;;;;;18.96;55.87;100705.28;5016758;28;20467;-64
2023/05/19 09:59:34;;;;;;;9.07;2.80;;;;;;;19.21;55.36;100694.41;5032804;28;20450;-64
2023/05/19 10:02:00;;;;;;;6.50;2.73;;;;;;;19.38;54.98;100697.69;5000119;28;20193;-63
2023/05/19 10:04:26;;;;;;;7.60;2.70;;;;;;;19.56;54.54;100692.31;5025824;28;20180;-63
2023/05/19 10:06:58;;;;;;;5.40;2.20;;;;;;;19.63;54.45;100696.16;5018789;28;20239;-63
2023/05/19 10:09:27;;;;;;;8.20;2.70;;;;;;;19.62;54.42;100697.34;5030167;28;20519;-63
2023/05/19 10:11:56;;;;;;;8.30;2.87;;;;;;;19.65;54.19;100692.88;5027376;28;20447;-63
2023/05/19 10:14:25;;;;;;;8.20;2.47;;;;;;;19.70;54.25;100690.53;5018452;28;20485;-63
2023/05/19 10:16:54;;;;;;;6.57;2.67;;;;;;;19.71;54.21;100694.25;5030718;28;20905;-63
2023/05/19 10:19:20;;;;;;;9.50;2.70;;;;;;;19.67;54.47;100681.88;5030574;28;20414;-64
2023/05/19 10:21:46;;;;;;;5.43;2.60;;;;;;;19.67;54.54;100690.47;5022515;28;20572;-63
2023/05/19 10:24:11;;;;;;;7.63;2.67;;;;;;;19.61;54.86;100687.09;5024759;28;20439;-63
2023/05/19 10:26:37;;;;;;;6.63;2.70;;;;;;;19.55;55.17;100688.59;5010373;28;20188;-65
2023/05/19 10:29:02;;;;;;;8.97;3.00;;;;;;;19.48;55.08;100690.50;5032683;28;20582;-64
2023/05/19 10:31:28;;;;;;;6.73;2.37;;;;;;;19.45;55.48;100680.63;5029271;28;20227;-65
2023/05/19 10:33:59;;;;;;;8.20;2.90;;;;;;;19.59;55.57;100680.09;5035612;28;20211;-64
2023/05/19 10:36:34;;;;;;;8.47;2.97;;;;;;;19.76;56.28;100673.88;5024141;28;20315;-62
2023/05/19 10:39:04;;;;;;;7.10;2.60;;;;;;;19.77;56.42;100684.94;5027645;28;20442;-62
2023/05/19 10:41:33;;;;;;;8.63;3.03;;;;;;;19.84;57.13;100681.38;5015252;28;20459;-63
2023/05/19 10:44:08;;;;;;;10.43;3.03;;;;;;;19.79;57.05;100684.56;5035901;28;20441;-65
2023/05/19 10:46:35;;;;;;;5.30;2.40;;;;;;;19.73;58.06;100686.94;5029222;28;20483;-64
2023/05/19 10:49:00;;;;;;;5.73;2.60;;;;;;;19.81;57.77;100687.91;5024934;28;20447;-63
2023/05/19 10:51:32;;;;;;;7.47;2.97;;;;;;;19.80;58.03;100674.75;5025678;28;20431;-63
2023/05/19 10:53:58;;;;;;;10.13;3.00;;;;;;;19.78;58.21;100685.78;5012108;28;20195;-63
2023/05/19 10:56:33;;;;;;;9.10;3.07;;;;;;;19.87;58.51;100674.91;5026676;28;20471;-63
2023/05/19 10:58:59;;;;;;;4.00;2.10;;;;;;;19.72;59.01;100676.66;5020103;28;20439;-65
2023/05/19 11:01:32;;;;;;;6.30;3.07;;;;;;;19.58;59.49;100672.69;5021880;28;20804;-65
2023/05/19 11:04:04;;;;;;;5.80;2.40;;;;;;;19.48;59.26;100676.19;5029380;28;20489;-65
2023/05/19 11:06:30;;;;;;;5.67;2.60;;;;;;;19.45;59.79;100671.19;5029497;28;20909;-65
2023/05/19 11:09:16;;;;;;;7.40;2.60;;;;;;;19.34;58.70;100673.88;5029925;28;20459;-65
2023/05/19 11:11:51;;;;;;;5.70;2.53;;;;;;;19.31;58.42;100662.34;5026994;28;20522;-65
2023/05/19 11:14:18;;;;;;;5.43;2.20;;;;;;;19.29;57.00;100664.72;5026087;28;20475;-65
2023/05/19 11:16:48;;;;;;;11.30;2.87;;;;;;;19.29;55.81;100668.44;5010079;28;20459;-63
2023/05/19 11:19:30;;;;;;;9.10;2.70;;;;;;;19.39;55.44;100659.25;5015954;28;20482;-63
2023/05/19 11:21:56;;;;;;;10.40;3.20;;;;;;;19.44;56.03;100666.69;5012182;28;20423;-64